Time;durP1;ratioP1;P1;durP2;ratioP2;P2;SDS_P1;SDS_P2;PMS_P1;PMS_P2;Temp;Humidity;BMP_temperature;BMP_pressure;BME280_temperature;BME280_humidity;BME280_pressure;Samples;Min_cycle;Max_cycle;Signal;HPM_P1;HPM_P2
2020/12/16 00:01:36;;;;;;;17.37;11.13;;;5.70;75.40;;;;;;5018397;28;20109;-85
2020/12/16 00:04:02;;;;;;;15.90;11.07;;;5.80;75.40;;;;;;5017481;28;20032;-85
2020/12/16 00:06:28;;;;;;;14.97;11.17;;;5.90;75.20;;;;;;5019732;28;20490;-85
2020/12/16 00:08:53;;;;;;;22.53;13.67;;;5.90;75.00;;;;;;5028901;28;20025;-85
2020/12/16 00:11:19;;;;;;;21.60;14.50;;;5.90;75.00;;;;;;5024319;28;20171;-85
2020/12/16 00:13:45;;;;;;;17.40;13.33;;;5.90;75.20;;;;;;5028327;28;20032;-85
2020/12/16 00:16:11;;;;;;;21.73;14.60;;;5.90;75.10;;;;;;5024297;28;20033;-85
2020/12/16 00:18:36;;;;;;;27.73;16.03;;;5.90;75.10;;;;;;5046604;28;20056;-85
2020/12/16 00:21:03;;;;;;;29.53;16.60;;;5.90;75.00;;;;;;5023476;28;20444;-85
2020/12/16 00:23:29;;;;;;;26.83;16.43;;;5.90;75.10;;;;;;5025859;28;20021;-85
2020/12/16 00:25:55;;;;;;;25.13;15.50;;;5.80;75.10;;;;;;5019029;28;20451;-85
2020/12/16 00:28:21;;;;;;;37.90;17.10;;;5.80;75.20;;;;;;5031559;28;20029;-85
2020/12/16 00:30:47;;;;;;;31.37;17.00;;;5.80;75.20;;;;;;5032476;28;20470;-84
2020/12/16 00:33:17;;;;;;;26.63;16.60;;;5.90;75.30;;;;;;5033100;28;20426;-84
2020/12/16 00:35:44;;;;;;;27.47;15.70;;;5.90;75.40;;;;;;5021041;28;20041;-84
2020/12/16 00:38:11;;;;;;;42.33;24.80;;;6.00;75.40;;;;;;5019534;28;20021;-84
2020/12/16 00:40:37;;;;;;;37.73;23.30;;;5.90;75.20;;;;;;5016886;28;20228;-84
2020/12/16 00:43:03;;;;;;;25.00;15.43;;;5.90;75.40;;;;;;5032304;28;20088;-84
2020/12/16 00:45:28;;;;;;;25.10;15.77;;;5.90;76.20;;;;;;5030537;28;20419;-84
2020/12/16 00:47:54;;;;;;;30.70;17.33;;;5.90;75.50;;;;;;5050974;28;20025;-84
2020/12/16 00:50:20;;;;;;;23.03;14.60;;;5.90;75.60;;;;;;5041108;28;20034;-84
2020/12/16 00:52:46;;;;;;;20.90;13.83;;;5.90;75.50;;;;;;5023384;28;20021;-84
2020/12/16 00:55:12;;;;;;;23.50;13.50;;;5.90;75.50;;;;;;5031170;28;20060;-83
2020/12/16 00:57:38;;;;;;;20.57;13.27;;;5.90;75.60;;;;;;5032833;28;20495;-84
2020/12/16 01:00:11;;;;;;;16.53;11.30;;;5.90;75.50;;;;;;5028750;28;20380;-83
2020/12/16 01:02:41;;;;;;;13.47;8.77;;;6.00;75.40;;;;;;5020467;28;20047;-84
2020/12/16 01:05:07;;;;;;;15.67;10.50;;;6.00;75.40;;;;;;5029014;28;20032;-84
2020/12/16 01:07:32;;;;;;;15.87;10.93;;;6.10;75.20;;;;;;5024106;28;20029;-84
2020/12/16 01:09:58;;;;;;;22.70;13.33;;;6.10;75.10;;;;;;5028166;28;20124;-84
2020/12/16 01:12:24;;;;;;;22.13;13.60;;;6.10;75.00;;;;;;5029682;28;20080;-84
2020/12/16 01:14:49;;;;;;;17.37;10.77;;;6.10;75.00;;;;;;5023775;28;20490;-83
2020/12/16 01:17:15;;;;;;;17.33;10.33;;;6.10;75.00;;;;;;5035409;28;20084;-83
2020/12/16 01:19:41;;;;;;;17.67;11.60;;;6.10;75.10;;;;;;5053936;28;20032;-83
2020/12/16 01:22:06;;;;;;;21.77;12.37;;;6.10;75.00;;;;;;5030251;28;20380;-83
2020/12/16 01:24:32;;;;;;;18.37;12.50;;;6.10;74.90;;;;;;5034759;28;20020;-83
2020/12/16 01:26:58;;;;;;;23.63;16.73;;;6.10;74.90;;;;;;5018367;28;20036;-83
2020/12/16 01:29:23;;;;;;;22.13;16.07;;;6.10;74.90;;;;;;5033214;28;20591;-83
2020/12/16 01:31:50;;;;;;;25.33;17.50;;;6.10;74.90;;;;;;5028019;28;20079;-83
2020/12/16 01:34:19;;;;;;;23.07;14.57;;;6.10;74.80;;;;;;5049898;28;20032;-84
2020/12/16 01:36:49;;;;;;;25.37;13.77;;;6.00;74.70;;;;;;5048461;28;20033;-84
2020/12/16 01:39:16;;;;;;;15.73;11.80;;;6.10;74.80;;;;;;5025114;28;20033;-84
2020/12/16 01:41:47;;;;;;;16.07;9.97;;;6.00;75.00;;;;;;5020485;28;20041;-84
2020/12/16 01:44:24;;;;;;;13.60;10.13;;;6.00;75.00;;;;;;5030431;28;20022;-84
2020/12/16 01:46:52;;;;;;;16.23;10.20;;;6.10;75.10;;;;;;5027307;28;20033;-84
2020/12/16 01:49:19;;;;;;;15.53;9.77;;;6.10;75.20;;;;;;5053891;28;20029;-85
2020/12/16 01:51:45;;;;;;;11.63;8.23;;;6.20;75.40;;;;;;5027066;28;20079;-85
2020/12/16 01:54:14;;;;;;;16.30;9.97;;;6.20;75.10;;;;;;5029884;28;20476;-85
2020/12/16 01:56:41;;;;;;;13.33;8.23;;;6.20;75.00;;;;;;5030868;28;20408;-85
2020/12/16 01:59:15;;;;;;;11.97;6.77;;;6.20;75.40;;;;;;5037870;28;20044;-85
2020/12/16 02:01:42;;;;;;;8.33;5.33;;;6.20;75.50;;;;;;5051182;28;20020;-85
2020/12/16 02:04:11;;;;;;;10.50;5.63;;;6.20;75.20;;;;;;5032306;28;20526;-85
2020/12/16 02:06:39;;;;;;;10.17;5.17;;;6.10;75.30;;;;;;5026057;28;20068;-85
2020/12/16 02:09:07;;;;;;;9.53;5.70;;;6.20;75.40;;;;;;5023557;28;20076;-85
2020/12/16 02:11:35;;;;;;;13.77;6.77;;;6.20;75.40;;;;;;5050270;28;20029;-84
2020/12/16 02:14:05;;;;;;;11.40;7.67;;;6.20;75.40;;;;;;5033582;28;20029;-84
2020/12/16 02:16:31;;;;;;;11.90;7.97;;;6.20;75.40;;;;;;5035445;28;20037;-84
2020/12/16 02:18:57;;;;;;;14.13;7.87;;;6.20;75.40;;;;;;5053753;28;20036;-84
2020/12/16 02:21:23;;;;;;;15.10;10.10;;;6.20;75.30;;;;;;5019760;28;20026;-84
2020/12/16 02:23:51;;;;;;;21.53;13.47;;;6.30;75.30;;;;;;5020500;28;20078;-84
2020/12/16 02:26:17;;;;;;;23.13;16.27;;;6.30;75.30;;;;;;5024363;28;20369;-84
2020/12/16 02:28:42;;;;;;;34.67;21.90;;;6.20;75.10;;;;;;5024990;28;20039;-84
2020/12/16 02:31:10;;;;;;;43.63;26.53;;;6.20;75.10;;;;;;5034040;28;20501;-85
2020/12/16 02:33:36;;;;;;;23.87;15.10;;;6.20;75.20;;;;;;5051185;28;20075;-85
2020/12/16 02:36:03;;;;;;;18.50;12.87;;;6.20;75.30;;;;;;5031344;28;20115;-85
2020/12/16 02:38:29;;;;;;;21.80;14.13;;;6.20;75.40;;;;;;5017145;28;20064;-84
2020/12/16 02:40:54;;;;;;;22.07;12.83;;;6.10;75.40;;;;;;5044139;28;20459;-84
2020/12/16 02:43:20;;;;;;;22.27;14.33;;;6.10;75.40;;;;;;5026572;28;20052;-84
2020/12/16 02:45:46;;;;;;;19.13;13.13;;;6.10;75.50;;;;;;5033240;28;20762;-84
2020/12/16 02:48:13;;;;;;;21.53;12.77;;;6.10;75.40;;;;;;5029292;28;20029;-83
2020/12/16 02:50:40;;;;;;;19.40;12.83;;;6.10;75.40;;;;;;5034479;28;20057;-84
2020/12/16 02:53:06;;;;;;;20.70;12.90;;;6.20;75.40;;;;;;5032758;28;20029;-84
2020/12/16 02:55:32;;;;;;;21.53;13.73;;;6.10;75.20;;;;;;5022020;28;20102;-83
2020/12/16 02:57:58;;;;;;;22.83;12.57;;;6.10;75.50;;;;;;5022665;28;20414;-84
2020/12/16 03:00:23;;;;;;;23.33;16.00;;;6.10;75.50;;;;;;5042006;28;20021;-84
2020/12/16 03:02:49;;;;;;;26.47;16.07;;;6.10;75.40;;;;;;5030897;28;20037;-84
2020/12/16 03:05:15;;;;;;;24.20;14.50;;;6.10;75.60;;;;;;5015180;28;20119;-84
2020/12/16 03:07:40;;;;;;;22.47;14.17;;;6.10;75.60;;;;;;5023931;28;20025;-84
2020/12/16 03:10:06;;;;;;;21.40;14.23;;;6.10;75.60;;;;;;5038237;28;20109;-84
2020/12/16 03:12:32;;;;;;;17.50;11.67;;;6.10;75.60;;;;;;5017721;28;20095;-84
2020/12/16 03:14:57;;;;;;;21.20;13.20;;;6.10;75.70;;;;;;5034031;28;20147;-84
2020/12/16 03:17:23;;;;;;;19.10;11.07;;;6.10;75.70;;;;;;5036584;28;20024;-84
2020/12/16 03:19:49;;;;;;;17.07;12.13;;;6.10;75.60;;;;;;5023215;28;20033;-84
2020/12/16 03:22:14;;;;;;;23.30;13.40;;;6.10;75.50;;;;;;5030809;28;20057;-84
2020/12/16 03:24:40;;;;;;;20.53;13.17;;;6.10;75.50;;;;;;5032193;28;20029;-84
2020/12/16 03:27:06;;;;;;;20.17;13.93;;;6.20;75.70;;;;;;5028039;28;20048;-85
2020/12/16 03:29:31;;;;;;;19.90;12.60;;;6.20;75.60;;;;;;5015463;28;20125;-85
2020/12/16 03:32:04;;;;;;;19.77;14.23;;;6.20;75.60;;;;;;5048466;28;20029;-85
2020/12/16 03:34:29;;;;;;;18.98;13.90;;;6.20;75.50;;;;;;5021856;28;20442;-85
2020/12/16 03:36:55;;;;;;;20.90;14.37;;;6.20;75.40;;;;;;5032952;28;20086;-85
2020/12/16 03:39:21;;;;;;;22.30;14.43;;;6.10;75.60;;;;;;5033108;28;20033;-85
2020/12/16 03:41:49;;;;;;;21.97;14.90;;;6.10;75.60;;;;;;5032928;28;20045;-85
2020/12/16 03:44:15;;;;;;;25.57;14.40;;;6.10;75.70;;;;;;5048116;28;20078;-85
2020/12/16 03:46:41;;;;;;;30.07;14.50;;;6.00;75.70;;;;;;5046727;28;20107;-84
2020/12/16 03:49:06;;;;;;;26.37;13.57;;;6.00;75.80;;;;;;5047055;28;20028;-85
2020/12/16 03:51:32;;;;;;;17.60;12.70;;;6.00;76.10;;;;;;5028144;28;20178;-85
2020/12/16 03:53:58;;;;;;;21.13;13.30;;;6.00;76.10;;;;;;5021793;28;20507;-85
2020/12/16 03:56:23;;;;;;;22.57;12.73;;;6.10;76.00;;;;;;5041004;28;20030;-85
2020/12/16 03:58:49;;;;;;;18.53;12.50;;;6.10;75.80;;;;;;5031426;28;20029;-85
2020/12/16 04:01:18;;;;;;;18.17;12.67;;;6.10;75.70;;;;;;5024268;28;20022;-85
2020/12/16 04:03:45;;;;;;;29.30;17.50;;;6.10;75.60;;;;;;5042878;28;20049;-85
2020/12/16 04:06:12;;;;;;;37.80;22.77;;;6.10;75.40;;;;;;5030965;28;20025;-85
2020/12/16 04:08:42;;;;;;;40.50;22.57;;;6.10;75.40;;;;;;5023262;28;20628;-85
2020/12/16 04:11:14;;;;;;;43.43;22.67;;;6.10;75.40;;;;;;5032606;28;20067;-85
2020/12/16 04:13:40;;;;;;;51.73;27.17;;;6.10;75.30;;;;;;5031914;28;20036;-85
2020/12/16 04:16:10;;;;;;;55.30;26.37;;;6.10;75.30;;;;;;5017610;28;20033;-85
2020/12/16 04:18:36;;;;;;;43.60;23.77;;;6.00;75.20;;;;;;5013958;28;20033;-84
2020/12/16 04:21:05;;;;;;;37.20;21.50;;;6.00;75.40;;;;;;5016499;28;20537;-84
2020/12/16 04:23:30;;;;;;;34.70;19.67;;;5.90;75.40;;;;;;5030588;28;20021;-84
2020/12/16 04:25:56;;;;;;;38.83;21.10;;;5.90;75.70;;;;;;5030575;28;20383;-84
2020/12/16 04:28:22;;;;;;;37.90;20.17;;;5.90;75.60;;;;;;5042020;28;20018;-84
2020/12/16 04:30:47;;;;;;;35.20;21.10;;;5.90;75.60;;;;;;5031699;28;20063;-84
2020/12/16 04:33:13;;;;;;;34.57;18.67;;;5.90;75.60;;;;;;5021687;28;20067;-83
2020/12/16 04:35:39;;;;;;;24.03;14.60;;;5.90;75.60;;;;;;5024302;28;20048;-83
2020/12/16 04:38:05;;;;;;;23.50;13.70;;;5.90;75.70;;;;;;5035979;28;20033;-85
2020/12/16 04:40:30;;;;;;;19.80;13.27;;;6.00;75.70;;;;;;5024395;28;20456;-85
2020/12/16 04:43:19;;;;;;;18.33;10.63;;;6.00;75.50;;;;;;5024109;28;20034;-84
2020/12/16 04:45:46;;;;;;;14.30;10.17;;;5.90;75.30;;;;;;5031829;28;20032;-85
2020/12/16 04:48:13;;;;;;;17.90;10.83;;;5.90;75.00;;;;;;5033732;28;20034;-84
2020/12/16 04:50:40;;;;;;;15.83;11.30;;;5.80;75.10;;;;;;5033186;28;20025;-84
2020/12/16 04:53:08;;;;;;;24.70;15.17;;;5.80;75.20;;;;;;5028887;28;20443;-85
2020/12/16 04:55:35;;;;;;;26.33;16.40;;;5.80;75.20;;;;;;5044355;28;20079;-85
2020/12/16 04:58:02;;;;;;;38.53;21.57;;;5.70;75.40;;;;;;5024427;28;20030;-84
2020/12/16 05:00:30;;;;;;;37.63;20.20;;;5.70;75.30;;;;;;5018218;28;20025;-85
2020/12/16 05:03:00;;;;;;;32.73;18.30;;;5.70;75.30;;;;;;5027340;28;20017;-84
2020/12/16 05:05:27;;;;;;;30.23;17.53;;;5.60;75.70;;;;;;5025016;28;20053;-83
2020/12/16 05:07:54;;;;;;;29.40;17.80;;;5.70;75.60;;;;;;5025190;28;20041;-83
2020/12/16 05:10:34;;;;;;;20.27;13.07;;;5.70;75.30;;;;;;5028639;28;20029;-83
2020/12/16 05:13:14;;;;;;;14.43;8.57;;;5.60;75.40;;;;;;5018729;28;20057;-83
2020/12/16 05:15:42;;;;;;;21.77;10.97;;;5.60;75.50;;;;;;5030851;28;20029;-83
2020/12/16 05:18:12;;;;;;;15.00;9.57;;;5.60;75.60;;;;;;5021246;28;20030;-83
2020/12/16 05:20:40;;;;;;;12.77;9.10;;;5.60;75.60;;;;;;5026152;28;20044;-83
2020/12/16 05:23:07;;;;;;;15.17;9.77;;;5.70;75.60;;;;;;5022722;28;20473;-83
2020/12/16 05:25:34;;;;;;;13.43;8.83;;;5.80;75.80;;;;;;5023407;28;20137;-84
2020/12/16 05:28:00;;;;;;;10.37;7.43;;;5.80;75.60;;;;;;5020366;28;20093;-84
2020/12/16 05:30:26;;;;;;;13.63;9.57;;;5.80;75.60;;;;;;5029377;28;20488;-84
2020/12/16 05:32:53;;;;;;;13.97;9.07;;;5.90;75.70;;;;;;5019923;28;20040;-84
2020/12/16 05:35:20;;;;;;;16.77;10.33;;;6.00;75.60;;;;;;5025588;28;20035;-84
2020/12/16 05:37:45;;;;;;;16.33;10.57;;;5.90;75.30;;;;;;5024210;28;20018;-84
2020/12/16 05:40:23;;;;;;;15.87;11.60;;;5.90;75.50;;;;;;5022052;28;20087;-84
2020/12/16 05:42:50;;;;;;;16.27;10.47;;;6.00;75.60;;;;;;5029203;28;20053;-84
2020/12/16 05:45:21;;;;;;;18.90;11.37;;;6.00;75.30;;;;;;5026916;28;20029;-84
2020/12/16 05:48:11;;;;;;;16.60;11.20;;;6.00;75.50;;;;;;5016654;28;20481;-83
2020/12/16 05:50:39;;;;;;;17.30;10.93;;;6.00;75.80;;;;;;5013630;28;20026;-83
2020/12/16 05:53:27;;;;;;;20.00;12.43;;;6.00;75.60;;;;;;5014961;28;20034;-83
2020/12/16 05:56:01;;;;;;;21.37;14.20;;;6.00;75.80;;;;;;5022726;28;20025;-84
2020/12/16 05:58:32;;;;;;;35.10;18.73;;;6.00;75.80;;;;;;5030859;28;20100;-84
2020/12/16 06:00:58;;;;;;;27.53;17.83;;;6.00;75.70;;;;;;5030078;28;20022;-84
2020/12/16 06:03:24;;;;;;;24.57;15.43;;;6.00;75.60;;;;;;5028689;28;20117;-84
2020/12/16 06:05:54;;;;;;;20.87;13.17;;;6.00;75.70;;;;;;5031091;28;20156;-84
2020/12/16 06:08:22;;;;;;;22.03;12.77;;;6.00;75.70;;;;;;5025021;28;20334;-83
2020/12/16 06:10:50;;;;;;;20.57;13.23;;;6.10;75.90;;;;;;5021283;28;20025;-83
2020/12/16 06:13:17;;;;;;;20.77;13.53;;;6.10;75.80;;;;;;5028788;28;20096;-83
2020/12/16 06:15:48;;;;;;;24.20;12.70;;;6.10;75.90;;;;;;5031419;28;20140;-83
2020/12/16 06:18:16;;;;;;;22.37;13.00;;;6.10;75.80;;;;;;5033347;28;20029;-83
2020/12/16 06:20:43;;;;;;;20.90;13.50;;;6.10;75.80;;;;;;5019745;28;20500;-83
2020/12/16 06:23:20;;;;;;;24.27;16.63;;;6.00;75.70;;;;;;5016972;28;20022;-83
2020/12/16 06:25:52;;;;;;;31.33;18.10;;;6.10;75.80;;;;;;5024843;28;20503;-82
2020/12/16 06:28:18;;;;;;;26.10;16.87;;;6.10;75.70;;;;;;5032088;28;20032;-82
2020/12/16 06:31:06;;;;;;;26.83;17.47;;;6.10;75.70;;;;;;5022239;28;20026;-83
2020/12/16 06:33:51;;;;;;;22.17;14.70;;;6.10;75.70;;;;;;5015088;28;20117;-83
2020/12/16 06:36:18;;;;;;;19.23;13.97;;;6.20;75.80;;;;;;5032925;28;20033;-83
2020/12/16 06:38:50;;;;;;;25.07;15.47;;;6.20;75.60;;;;;;5025713;28;20029;-83
2020/12/16 06:41:30;;;;;;;23.03;15.73;;;6.20;75.50;;;;;;5023153;28;20030;-83
2020/12/16 06:44:10;;;;;;;26.40;15.57;;;6.20;75.50;;;;;;5018896;28;20029;-83
2020/12/16 06:46:39;;;;;;;18.47;12.53;;;6.10;75.50;;;;;;5015399;28;20057;-84
2020/12/16 06:49:07;;;;;;;18.43;12.70;;;6.10;75.50;;;;;;5032170;28;20030;-84
2020/12/16 06:52:09;;;;;;;19.53;13.67;;;6.10;75.60;;;;;;5008594;28;20120;-83
2020/12/16 06:54:44;;;;;;;18.80;13.10;;;6.10;75.70;;;;;;4992959;28;20472;-83
2020/12/16 06:57:11;;;;;;;18.70;12.43;;;6.20;75.60;;;;;;5030366;28;20391;-83
2020/12/16 06:59:45;;;;;;;19.80;13.67;;;6.10;75.50;;;;;;5014714;28;20043;-83
2020/12/16 07:02:21;;;;;;;22.70;15.53;;;6.10;75.70;;;;;;5012209;28;20034;-83
2020/12/16 07:04:47;;;;;;;24.83;15.43;;;6.10;75.70;;;;;;5014335;28;20025;-84
2020/12/16 07:07:38;;;;;;;27.83;16.70;;;6.10;75.70;;;;;;5008715;28;20037;-84
2020/12/16 07:10:24;;;;;;;28.27;16.67;;;6.10;75.90;;;;;;5009030;28;20373;-84
2020/12/16 07:13:14;;;;;;;23.53;15.30;;;6.20;76.00;;;;;;5012511;28;20045;-83
2020/12/16 07:15:41;;;;;;;22.93;16.03;;;6.20;75.80;;;;;;5008871;28;20033;-83
2020/12/16 07:18:23;;;;;;;44.23;25.00;;;6.20;75.70;;;;;;5006951;28;20060;-84
2020/12/16 07:20:50;;;;;;;30.85;18.10;;;6.20;75.60;;;;;;5008641;28;20037;-84
2020/12/16 07:23:16;;;;;;;32.37;19.87;;;6.20;75.50;;;;;;5027684;28;20029;-84
2020/12/16 07:25:46;;;;;;;28.93;19.43;;;6.20;75.50;;;;;;5010132;28;20029;-84
2020/12/16 07:28:12;;;;;;;29.00;18.07;;;6.20;75.50;;;;;;5005394;28;20091;-84
2020/12/16 07:30:51;;;;;;;30.90;19.03;;;6.20;75.40;;;;;;5025107;28;20160;-83
2020/12/16 07:33:18;;;;;;;29.77;20.37;;;6.20;75.50;;;;;;5014011;28;20021;-84
2020/12/16 07:35:47;;;;;;;29.77;18.83;;;6.20;75.50;;;;;;4996353;28;20033;-84
2020/12/16 07:38:14;;;;;;;30.37;19.17;;;6.20;75.60;;;;;;5003678;28;20022;-84
2020/12/16 07:40:39;;;;;;;29.73;20.63;;;6.20;75.60;;;;;;4998184;28;20431;-84
2020/12/16 07:43:08;;;;;;;35.13;21.17;;;6.10;75.40;;;;;;5016707;28;20049;-83
2020/12/16 07:45:34;;;;;;;30.57;19.93;;;6.10;75.40;;;;;;5020916;28;20087;-83
2020/12/16 07:48:02;;;;;;;31.77;20.53;;;6.10;75.40;;;;;;5020473;28;20025;-83
2020/12/16 07:50:27;;;;;;;34.73;22.20;;;6.10;75.40;;;;;;5016356;28;20044;-83
2020/12/16 07:52:53;;;;;;;34.03;20.83;;;6.10;75.40;;;;;;5023339;28;20488;-83
2020/12/16 07:55:23;;;;;;;40.10;25.50;;;6.10;75.30;;;;;;5010604;28;20075;-83
2020/12/16 07:57:49;;;;;;;38.07;24.60;;;6.10;75.30;;;;;;5016685;28;20057;-83
2020/12/16 08:00:21;;;;;;;40.47;23.40;;;6.10;75.20;;;;;;5023372;28;20076;-83
2020/12/16 08:02:51;;;;;;;45.92;26.52;;;6.10;75.40;;;;;;5018859;28;20476;-83
2020/12/16 08:05:17;;;;;;;51.73;28.87;;;6.20;75.50;;;;;;5040050;28;20033;-83
2020/12/16 08:07:43;;;;;;;46.77;26.27;;;6.20;75.50;;;;;;5019709;28;20021;-83
2020/12/16 08:10:09;;;;;;;49.00;30.20;;;6.30;75.60;;;;;;5018065;28;20412;-83
2020/12/16 08:12:42;;;;;;;67.03;43.90;;;6.30;75.90;;;;;;5010775;28;20029;-84
2020/12/16 08:15:17;;;;;;;55.47;34.53;;;6.40;75.90;;;;;;5026009;28;20029;-83
2020/12/16 08:17:45;;;;;;;52.33;31.37;;;6.40;75.30;;;;;;5022546;28;20531;-83
2020/12/16 08:20:20;;;;;;;45.83;28.57;;;6.40;75.30;;;;;;5010235;28;20026;-83
2020/12/16 08:22:48;;;;;;;45.77;26.07;;;6.50;75.40;;;;;;5027291;28;20025;-83
2020/12/16 08:25:16;;;;;;;34.87;22.27;;;6.50;75.30;;;;;;5025708;28;20048;-83
2020/12/16 08:27:47;;;;;;;25.77;17.73;;;6.60;75.20;;;;;;5022295;28;20053;-83
2020/12/16 08:30:16;;;;;;;27.33;18.13;;;6.60;75.10;;;;;;5019992;28;20034;-84
2020/12/16 08:33:06;;;;;;;31.30;20.03;;;6.60;75.10;;;;;;5044807;28;20377;-84
2020/12/16 08:36:04;;;;;;;36.47;21.27;;;6.60;75.10;;;;;;5019185;28;20436;-83
2020/12/16 08:38:32;;;;;;;31.17;20.80;;;6.70;75.30;;;;;;5031039;28;20026;-84
2020/12/16 08:40:59;;;;;;;29.23;20.60;;;6.70;75.80;;;;;;5024343;28;20025;-83
2020/12/16 08:43:32;;;;;;;35.33;20.70;;;6.80;75.30;;;;;;5022912;28;20037;-84
2020/12/16 08:46:08;;;;;;;22.75;14.88;;;6.80;75.20;;;;;;5029578;28;20482;-84
2020/12/16 08:48:51;;;;;;;39.97;23.40;;;6.80;75.20;;;;;;5022799;28;20021;-84
2020/12/16 08:51:23;;;;;;;;;;;6.80;74.90;;;;;;5033685;28;20049;-84
2020/12/16 08:53:54;;;;;;;34.20;23.00;;;6.80;75.10;;;;;;5053045;28;20359;-84
2020/12/16 08:56:20;;;;;;;35.57;19.97;;;6.80;74.80;;;;;;5026786;28;20060;-84
2020/12/16 08:58:48;;;;;;;35.27;20.73;;;6.70;75.00;;;;;;5033370;28;20026;-84
2020/12/16 09:01:13;;;;;;;32.97;21.20;;;6.60;75.10;;;;;;5028222;28;20481;-84
2020/12/16 09:03:42;;;;;;;38.10;20.47;;;6.60;75.30;;;;;;5026259;28;20023;-84
2020/12/16 09:06:08;;;;;;;32.30;20.00;;;6.70;75.40;;;;;;5028801;28;20444;-84
2020/12/16 09:08:36;;;;;;;30.07;17.57;;;6.70;75.10;;;;;;5031142;28;20063;-84
2020/12/16 09:11:01;;;;;;;34.13;18.37;;;6.70;75.50;;;;;;5030536;28;20033;-84
2020/12/16 09:13:30;;;;;;;24.53;16.37;;;6.60;75.10;;;;;;5032815;28;20028;-83
2020/12/16 09:15:56;;;;;;;25.87;17.87;;;6.70;75.60;;;;;;5032988;28;20025;-84
2020/12/16 09:18:30;;;;;;;28.27;18.40;;;6.90;75.50;;;;;;5050971;28;20503;-84
2020/12/16 09:20:56;;;;;;;27.90;18.27;;;7.10;75.30;;;;;;5020911;28;20492;-84
2020/12/16 09:23:30;;;;;;;28.27;18.63;;;7.30;75.10;;;;;;5049612;28;20029;-84
2020/12/16 09:25:56;;;;;;;27.37;17.97;;;7.60;74.90;;;;;;5055301;28;20032;-85
2020/12/16 09:28:36;;;;;;;26.23;17.43;;;7.70;74.70;;;;;;5033474;28;20112;-84
2020/12/16 09:31:16;;;;;;;29.03;17.53;;;7.90;74.50;;;;;;5030724;28;20029;-84
2020/12/16 09:33:53;;;;;;;27.80;17.70;;;7.90;74.00;;;;;;5035603;28;20025;-84
2020/12/16 09:36:26;;;;;;;24.40;16.33;;;7.90;74.00;;;;;;5030774;28;20029;-84
2020/12/16 09:38:59;;;;;;;;;;;7.90;73.90;;;;;;5034785;28;20025;-84
2020/12/16 09:41:25;;;;;;;25.73;14.10;;;7.90;74.10;;;;;;5017224;28;19917;-84
2020/12/16 09:43:51;;;;;;;20.13;12.97;;;7.90;74.00;;;;;;5050521;28;20033;-84
2020/12/16 09:46:19;;;;;;;19.27;11.77;;;7.90;73.90;;;;;;5036541;28;20029;-84
2020/12/16 09:48:48;;;;;;;19.33;12.23;;;7.90;73.80;;;;;;5030978;28;20025;-84
2020/12/16 09:51:22;;;;;;;14.90;11.03;;;7.90;73.70;;;;;;5026698;28;20040;-84
2020/12/16 09:53:47;;;;;;;17.63;11.53;;;7.80;73.80;;;;;;5035598;28;20102;-84
2020/12/16 09:56:27;;;;;;;20.77;10.60;;;7.80;74.00;;;;;;5036637;28;20029;-84
2020/12/16 09:58:53;;;;;;;16.73;11.07;;;7.80;74.00;;;;;;5024827;28;20482;-84
2020/12/16 10:01:19;;;;;;;23.93;10.43;;;7.80;73.90;;;;;;5054139;28;20091;-84
2020/12/16 10:03:47;;;;;;;16.33;10.57;;;7.80;73.90;;;;;;5036547;28;20021;-84
2020/12/16 10:06:14;;;;;;;13.27;9.20;;;7.70;73.90;;;;;;5036290;28;20025;-84
2020/12/16 10:08:41;;;;;;;13.33;9.33;;;7.70;74.00;;;;;;5034639;28;20021;-83
2020/12/16 10:11:11;;;;;;;13.50;10.17;;;7.70;74.00;;;;;;5034280;28;20033;-84
2020/12/16 10:13:38;;;;;;;15.47;8.73;;;7.80;73.80;;;;;;5035603;28;20460;-84
2020/12/16 10:16:03;;;;;;;11.47;8.47;;;7.90;73.60;;;;;;5035764;28;20025;-84
2020/12/16 10:18:29;;;;;;;13.97;8.83;;;7.90;73.50;;;;;;5035759;28;20029;-84
2020/12/16 10:20:55;;;;;;;17.67;9.90;;;8.00;73.60;;;;;;5035811;28;20025;-84
2020/12/16 10:23:20;;;;;;;16.03;11.00;;;8.00;73.60;;;;;;5027095;28;20086;-84
2020/12/16 10:25:46;;;;;;;25.40;16.10;;;8.10;73.60;;;;;;5035856;28;20069;-84
2020/12/16 10:28:12;;;;;;;22.23;15.37;;;8.10;73.60;;;;;;5050119;28;20044;-84
2020/12/16 10:30:38;;;;;;;23.47;16.07;;;8.10;73.60;;;;;;5035184;28;20095;-84
2020/12/16 10:33:07;;;;;;;23.60;14.77;;;8.10;73.60;;;;;;5052110;28;20087;-85
2020/12/16 10:35:34;;;;;;;24.17;15.53;;;8.10;74.10;;;;;;5034316;28;20044;-84
2020/12/16 10:38:02;;;;;;;22.27;14.97;;;8.20;73.70;;;;;;5034191;28;20028;-83
2020/12/16 10:40:31;;;;;;;25.60;15.20;;;8.10;73.60;;;;;;5035069;28;20032;-83
2020/12/16 10:42:58;;;;;;;25.37;14.80;;;8.20;73.90;;;;;;5050363;28;20117;-82
2020/12/16 10:45:25;;;;;;;24.03;15.57;;;8.20;73.80;;;;;;5047027;28;20814;-83
2020/12/16 10:47:57;;;;;;;23.70;15.70;;;8.30;73.80;;;;;;5024547;28;20041;-83
2020/12/16 10:50:24;;;;;;;26.93;13.93;;;8.30;73.70;;;;;;5015665;28;20468;-83
2020/12/16 10:52:50;;;;;;;27.23;15.50;;;8.30;73.50;;;;;;5031977;28;20571;-83
2020/12/16 10:55:16;;;;;;;22.90;14.40;;;8.30;73.50;;;;;;5045128;28;20670;-83
2020/12/16 10:57:42;;;;;;;20.57;13.40;;;8.30;73.40;;;;;;5022835;28;20030;-83
2020/12/16 11:00:07;;;;;;;22.67;15.80;;;8.30;73.40;;;;;;5033163;28;20029;-83
2020/12/16 11:02:33;;;;;;;18.63;13.20;;;8.40;73.40;;;;;;5049322;28;20025;-83
2020/12/16 11:04:59;;;;;;;23.03;13.70;;;8.40;73.40;;;;;;5034032;28;20060;-83
2020/12/16 11:07:24;;;;;;;21.03;14.53;;;8.50;73.40;;;;;;5029982;28;20483;-83
2020/12/16 11:09:50;;;;;;;21.30;13.73;;;8.50;73.30;;;;;;5033126;28;20036;-82
2020/12/16 11:12:16;;;;;;;21.73;13.00;;;8.50;73.30;;;;;;5052233;28;20772;-83
2020/12/16 11:14:41;;;;;;;20.80;13.73;;;8.50;73.20;;;;;;5025618;28;20036;-83
2020/12/16 11:17:09;;;;;;;17.73;11.33;;;8.60;73.20;;;;;;5018331;28;20029;-83
2020/12/16 11:19:35;;;;;;;19.00;10.87;;;8.60;73.10;;;;;;5049568;28;20028;-83
2020/12/16 11:22:03;;;;;;;24.40;11.07;;;8.60;73.00;;;;;;5034649;28;20029;-83
2020/12/16 11:24:29;;;;;;;19.17;12.50;;;8.60;72.90;;;;;;5033988;28;20025;-83
2020/12/16 11:26:54;;;;;;;21.03;13.27;;;8.70;72.90;;;;;;5049964;28;20044;-83
2020/12/16 11:29:22;;;;;;;22.50;14.20;;;8.70;72.80;;;;;;5016053;28;20086;-83
2020/12/16 11:31:53;;;;;;;20.60;13.23;;;8.70;72.90;;;;;;5024591;28;20025;-83
2020/12/16 11:34:22;;;;;;;23.27;14.20;;;8.70;73.00;;;;;;5046078;28;20025;-84
2020/12/16 11:36:49;;;;;;;21.13;14.50;;;8.80;72.90;;;;;;5029839;28;20178;-81
2020/12/16 11:39:16;;;;;;;26.70;15.07;;;8.80;72.90;;;;;;5022031;28;20436;-82
2020/12/16 11:41:46;;;;;;;19.10;13.43;;;8.80;72.90;;;;;;5036696;28;20132;-82
2020/12/16 11:44:14;;;;;;;23.40;14.73;;;8.80;72.90;;;;;;5039057;28;20037;-82
2020/12/16 11:46:40;;;;;;;27.00;16.10;;;8.80;72.80;;;;;;5025033;28;20034;-82
2020/12/16 11:49:06;;;;;;;25.53;14.80;;;8.90;73.00;;;;;;5022976;28;20635;-82
2020/12/16 11:51:32;;;;;;;18.80;13.47;;;8.90;72.80;;;;;;5022946;28;20029;-82
2020/12/16 11:53:58;;;;;;;16.93;13.57;;;8.90;72.90;;;;;;5019206;28;20072;-81
2020/12/16 11:56:24;;;;;;;20.47;13.17;;;9.00;73.00;;;;;;5031048;28;20040;-82
2020/12/16 11:58:51;;;;;;;19.17;13.63;;;9.00;73.00;;;;;;5028185;28;20037;-82
2020/12/16 12:01:17;;;;;;;19.93;13.23;;;9.10;72.90;;;;;;5032211;28;20029;-82
2020/12/16 12:03:46;;;;;;;19.90;13.17;;;9.10;72.60;;;;;;5029271;28;20026;-82
2020/12/16 12:06:14;;;;;;;20.40;12.67;;;9.10;72.60;;;;;;5029471;28;20060;-82
2020/12/16 12:08:40;;;;;;;21.53;12.27;;;9.10;72.60;;;;;;5015305;28;20025;-82
2020/12/16 12:11:13;;;;;;;17.67;11.53;;;9.10;72.70;;;;;;5014241;28;20548;-82
2020/12/16 12:13:39;;;;;;;18.90;12.98;;;9.20;72.40;;;;;;5018341;28;20045;-82
2020/12/16 12:16:16;;;;;;;20.43;12.77;;;9.20;72.40;;;;;;5039709;28;20080;-82
2020/12/16 12:18:43;;;;;;;19.27;13.30;;;9.30;72.30;;;;;;5030756;28;20026;-82
2020/12/16 12:21:10;;;;;;;17.43;12.40;;;9.30;72.20;;;;;;5029794;28;20108;-83
2020/12/16 12:23:36;;;;;;;18.23;11.70;;;9.30;72.00;;;;;;5038191;28;20028;-82
2020/12/16 12:26:05;;;;;;;17.93;12.13;;;9.30;71.80;;;;;;5020544;28;20029;-82
2020/12/16 12:28:31;;;;;;;19.63;12.87;;;9.30;71.70;;;;;;5030107;28;20025;-82
2020/12/16 12:30:57;;;;;;;14.40;10.77;;;9.40;71.50;;;;;;5025602;28;20022;-82
2020/12/16 12:33:23;;;;;;;21.43;11.30;;;9.50;71.40;;;;;;5023485;28;20028;-82
2020/12/16 12:35:49;;;;;;;19.33;10.90;;;9.50;71.20;;;;;;5015753;28;20025;-82
2020/12/16 12:38:15;;;;;;;15.43;10.30;;;9.60;71.20;;;;;;5031350;28;20038;-82
2020/12/16 12:40:41;;;;;;;18.00;11.50;;;9.60;71.00;;;;;;5029940;28;20041;-83
2020/12/16 12:43:07;;;;;;;56.20;26.43;;;9.60;71.10;;;;;;5027764;28;20429;-83
2020/12/16 12:45:33;;;;;;;47.17;25.63;;;9.70;71.10;;;;;;5028882;28;20032;-83